createdAt,value
2018-01-26T00:00:13.774Z,5.84
2018-01-26T00:01:13.690Z,5.87
2018-01-26T00:02:13.607Z,5.87
2018-01-26T00:03:13.526Z,5.84
2018-01-26T00:04:13.442Z,5.87
2018-01-26T00:05:13.359Z,5.84
2018-01-26T00:06:13.277Z,5.90
2018-01-26T00:07:13.193Z,5.87
2018-01-26T00:08:13.108Z,5.89
2018-01-26T00:09:13.025Z,5.86
2018-01-26T00:10:12.941Z,5.86
2018-01-26T00:11:12.859Z,5.89
2018-01-26T00:12:12.776Z,5.80
2018-01-26T00:13:12.692Z,5.89
2018-01-26T00:14:12.609Z,5.84
2018-01-26T00:15:12.592Z,5.72
2018-01-26T00:16:12.446Z,5.76
2018-01-26T00:17:12.360Z,5.76
2018-01-26T00:18:12.276Z,5.82
2018-01-26T00:19:12.194Z,5.84
2018-01-26T00:20:12.111Z,5.73
2018-01-26T00:21:12.028Z,5.75
2018-01-26T00:22:11.943Z,5.62
2018-01-26T00:23:11.859Z,5.66
2018-01-26T00:24:11.780Z,5.51
2018-01-26T00:25:11.694Z,5.46
2018-01-26T00:26:11.611Z,5.50
2018-01-26T00:27:11.530Z,5.43
2018-01-26T00:28:11.444Z,5.38
2018-01-26T00:29:11.358Z,5.38
2018-01-26T00:30:11.277Z,5.41
2018-01-26T00:31:11.197Z,5.36
2018-01-26T00:32:11.113Z,5.36
2018-01-26T00:33:11.027Z,5.26
2018-01-26T00:34:10.943Z,5.28
2018-01-26T00:35:10.862Z,5.17
2018-01-26T00:36:10.780Z,5.21
2018-01-26T00:37:10.695Z,5.20
2018-01-26T00:38:10.608Z,5.12
2018-01-26T00:39:10.526Z,5.10
2018-01-26T00:40:10.442Z,5.05
2018-01-26T00:41:10.357Z,5.04
2018-01-26T00:42:10.276Z,4.92
2018-01-26T00:43:10.193Z,4.92
2018-01-26T00:44:10.108Z,4.78
2018-01-26T00:45:10.023Z,4.82
2018-01-26T00:46:09.941Z,4.84
2018-01-26T00:47:09.857Z,4.82
2018-01-26T00:48:09.772Z,4.87
2018-01-26T00:49:09.691Z,4.84
2018-01-26T00:50:09.611Z,4.82
2018-01-26T00:51:09.521Z,4.82
2018-01-26T00:52:09.437Z,4.80
2018-01-26T00:53:09.354Z,4.67
2018-01-26T00:54:09.268Z,4.82
2018-01-26T00:55:09.187Z,4.78
2018-01-26T00:56:09.121Z,4.73
2018-01-26T00:57:09.019Z,4.80
2018-01-26T00:58:08.934Z,4.80
2018-01-26T00:59:08.851Z,4.62
2018-01-26T01:00:08.769Z,4.70
2018-01-26T01:01:08.683Z,4.75
2018-01-26T01:02:08.599Z,4.78
2018-01-26T01:03:08.515Z,4.63
2018-01-26T01:04:08.430Z,4.63
2018-01-26T01:05:08.346Z,4.67
2018-01-26T01:06:08.261Z,4.62
2018-01-26T01:07:08.179Z,4.67
2018-01-26T01:08:08.094Z,4.62
2018-01-26T01:09:08.010Z,4.63
2018-01-26T01:10:07.927Z,4.53
2018-01-26T01:11:07.843Z,4.60
2018-01-26T01:12:07.764Z,4.58
2018-01-26T01:13:07.675Z,4.58
2018-01-26T01:14:07.606Z,4.45
2018-01-26T01:15:07.505Z,4.48
2018-01-26T01:16:07.424Z,4.45
2018-01-26T01:17:07.338Z,4.40
2018-01-26T01:18:07.254Z,4.37
2018-01-26T01:19:07.171Z,4.32
2018-01-26T01:20:07.085Z,4.32
2018-01-26T01:21:07.002Z,4.34
2018-01-26T01:22:06.927Z,4.30
2018-01-26T01:23:06.832Z,4.17
2018-01-26T01:24:06.749Z,4.17
2018-01-26T01:25:06.665Z,4.22
2018-01-26T01:26:06.581Z,4.24
2018-01-26T01:27:06.494Z,4.28
2018-01-26T01:28:06.417Z,4.10
2018-01-26T01:29:06.328Z,4.16
2018-01-26T01:30:06.242Z,4.16
2018-01-26T01:31:06.160Z,4.16
2018-01-26T01:32:06.097Z,4.23
2018-01-26T01:33:05.987Z,4.28
2018-01-26T01:34:05.907Z,4.17
2018-01-26T01:35:05.824Z,4.19
2018-01-26T01:36:05.738Z,4.20
2018-01-26T01:37:05.653Z,4.22
2018-01-26T01:38:05.565Z,4.14
2018-01-26T01:39:05.485Z,4.13
2018-01-26T01:40:05.400Z,4.20
2018-01-26T01:41:05.313Z,4.12
2018-01-26T01:42:05.229Z,4.16
2018-01-26T01:43:05.145Z,4.12
2018-01-26T01:44:05.059Z,4.06
2018-01-26T01:45:04.978Z,4.05
2018-01-26T01:46:04.892Z,4.04
2018-01-26T01:47:04.806Z,4.06
2018-01-26T01:48:04.723Z,4.08
2018-01-26T01:49:04.639Z,4.01
2018-01-26T01:50:04.552Z,4.05
2018-01-26T01:51:04.470Z,4.08
2018-01-26T01:52:04.386Z,4.13
2018-01-26T01:53:04.300Z,4.02
2018-01-26T01:54:04.215Z,4.06
2018-01-26T01:55:04.132Z,4.06
2018-01-26T01:56:04.049Z,3.94
2018-01-26T01:57:03.961Z,3.96
2018-01-26T01:58:03.877Z,4.06
2018-01-26T01:59:03.793Z,3.94
2018-01-26T02:00:03.712Z,4.05
2018-01-26T02:01:03.624Z,3.98
2018-01-26T02:02:03.541Z,4.05
2018-01-26T02:03:03.453Z,4.08
2018-01-26T02:04:03.372Z,4.08
2018-01-26T02:05:03.285Z,4.14
2018-01-26T02:06:03.204Z,4.10
2018-01-26T02:07:03.116Z,4.06
2018-01-26T02:08:03.034Z,4.04
2018-01-26T02:09:02.949Z,4.06
2018-01-26T02:10:02.861Z,4.04
2018-01-26T02:11:02.783Z,4.10
2018-01-26T02:12:02.694Z,3.96
2018-01-26T02:13:02.610Z,4.05
2018-01-26T02:14:02.528Z,3.98
2018-01-26T02:15:02.441Z,3.98
2018-01-26T02:16:02.357Z,3.95
2018-01-26T02:17:02.274Z,3.96
2018-01-26T02:18:02.187Z,3.96
2018-01-26T02:19:02.103Z,3.96
2018-01-26T02:20:02.018Z,3.96
2018-01-26T02:21:01.934Z,3.95
2018-01-26T02:22:01.851Z,3.96
2018-01-26T02:23:01.765Z,3.96
2018-01-26T02:24:01.682Z,3.98
2018-01-26T02:25:01.594Z,3.96
2018-01-26T02:26:01.511Z,3.96
2018-01-26T02:27:01.426Z,3.96
2018-01-26T02:28:01.355Z,4.10
2018-01-26T02:29:01.258Z,4.04
2018-01-26T02:30:01.172Z,4.08
2018-01-26T02:31:01.091Z,4.10
2018-01-26T02:32:01.004Z,4.12
2018-01-26T02:33:00.920Z,4.02
2018-01-26T02:34:00.836Z,4.02
2018-01-26T02:35:00.748Z,4.02
2018-01-26T02:36:00.667Z,3.99
2018-01-26T02:37:00.591Z,3.96
2018-01-26T02:38:00.496Z,3.99
2018-01-26T02:39:00.412Z,3.99
2018-01-26T02:40:00.326Z,3.98
2018-01-26T02:41:00.243Z,4.05
2018-01-26T02:42:00.158Z,4.16
2018-01-26T02:43:00.074Z,4.14
2018-01-26T02:43:59.987Z,4.13
2018-01-26T02:44:59.906Z,4.06
2018-01-26T02:45:59.821Z,4.08
2018-01-26T02:46:59.737Z,4.05
2018-01-26T02:47:59.654Z,4.06
2018-01-26T02:48:59.565Z,4.10
2018-01-26T02:49:59.482Z,3.99
2018-01-26T02:50:59.430Z,4.06
2018-01-26T02:51:59.313Z,3.96
2018-01-26T02:52:59.228Z,3.98
2018-01-26T02:53:59.144Z,3.98
2018-01-26T02:54:59.058Z,3.99
2018-01-26T02:55:58.976Z,3.92
2018-01-26T02:56:58.889Z,3.95
2018-01-26T02:57:58.806Z,3.96
2018-01-26T02:58:58.767Z,3.94
2018-01-26T02:59:58.638Z,3.94
2018-01-26T03:00:58.555Z,4.04
2018-01-26T03:01:58.470Z,3.99
2018-01-26T03:02:58.387Z,3.94
2018-01-26T03:03:58.300Z,3.94
2018-01-26T03:04:58.214Z,3.98
2018-01-26T03:05:58.131Z,3.92
2018-01-26T03:06:58.046Z,3.98
2018-01-26T03:07:57.962Z,4.10
2018-01-26T03:08:57.875Z,3.98
2018-01-26T03:09:57.791Z,3.95
2018-01-26T03:10:57.708Z,3.94
2018-01-26T03:11:57.621Z,3.94
2018-01-26T03:12:57.539Z,3.91
2018-01-26T03:13:57.452Z,3.92
2018-01-26T03:14:57.382Z,3.94
2018-01-26T03:15:57.284Z,3.83
2018-01-26T03:16:57.199Z,3.88
2018-01-26T03:17:57.115Z,3.81
2018-01-26T03:18:57.031Z,3.76
2018-01-26T03:19:56.945Z,3.81
2018-01-26T03:20:56.860Z,3.77
2018-01-26T03:21:56.776Z,3.80
2018-01-26T03:22:56.691Z,3.77
2018-01-26T03:23:56.607Z,3.73
2018-01-26T03:24:56.522Z,3.76
2018-01-26T03:25:56.436Z,3.87
2018-01-26T03:26:56.350Z,3.86
2018-01-26T03:27:56.268Z,3.78
2018-01-26T03:28:56.183Z,3.80
2018-01-26T03:29:56.097Z,3.76
2018-01-26T03:30:56.014Z,3.80
2018-01-26T03:31:55.929Z,3.81
2018-01-26T03:32:55.843Z,3.80
2018-01-26T03:33:55.760Z,3.77
2018-01-26T03:34:55.672Z,3.78
2018-01-26T03:35:55.588Z,3.80
2018-01-26T03:36:55.506Z,3.81
2018-01-26T03:37:55.420Z,3.77
2018-01-26T03:38:55.342Z,3.81
2018-01-26T03:39:55.248Z,3.88
2018-01-26T03:40:55.165Z,3.91
2018-01-26T03:41:55.080Z,3.78
2018-01-26T03:42:54.995Z,3.74
2018-01-26T03:43:54.909Z,3.80
2018-01-26T03:44:54.832Z,3.70
2018-01-26T03:45:54.740Z,3.69
2018-01-26T03:46:54.654Z,3.66
2018-01-26T03:47:54.571Z,3.66
2018-01-26T03:48:54.485Z,3.76
2018-01-26T03:49:54.398Z,3.66
2018-01-26T03:50:54.314Z,3.63
2018-01-26T03:51:54.231Z,3.65
2018-01-26T03:52:54.148Z,3.69
2018-01-26T03:53:54.062Z,3.68
2018-01-26T03:54:53.978Z,3.66
2018-01-26T03:55:53.891Z,3.62
2018-01-26T03:56:53.805Z,3.60
2018-01-26T03:57:53.722Z,3.58
2018-01-26T03:58:53.636Z,3.50
2018-01-26T03:59:53.552Z,3.50
2018-01-26T04:00:53.465Z,3.48
2018-01-26T04:01:53.379Z,3.51
2018-01-26T04:02:53.296Z,3.55
2018-01-26T04:03:53.210Z,3.66
2018-01-26T04:04:53.125Z,3.47
2018-01-26T04:05:53.038Z,3.47
2018-01-26T04:06:52.957Z,3.56
2018-01-26T04:07:52.872Z,3.48
2018-01-26T04:08:52.787Z,3.58
2018-01-26T04:09:52.700Z,3.60
2018-01-26T04:10:52.620Z,3.58
2018-01-26T04:11:52.531Z,3.56
2018-01-26T04:12:52.445Z,3.65
2018-01-26T04:13:52.361Z,3.70
2018-01-26T04:14:52.276Z,3.70
2018-01-26T04:15:52.191Z,3.69
2018-01-26T04:16:52.105Z,3.68
2018-01-26T04:17:52.020Z,3.66
2018-01-26T04:18:51.936Z,3.65
2018-01-26T04:19:51.850Z,3.70
2018-01-26T04:20:51.765Z,3.66
2018-01-26T04:21:51.702Z,3.66
2018-01-26T04:22:51.599Z,3.66
2018-01-26T04:23:51.509Z,3.65
2018-01-26T04:24:51.422Z,3.63
2018-01-26T04:25:51.338Z,3.63
2018-01-26T04:26:51.255Z,3.63
2018-01-26T04:27:51.174Z,3.62
2018-01-26T04:28:51.104Z,3.62
2018-01-26T04:29:51.036Z,3.59
2018-01-26T04:30:50.918Z,3.62
2018-01-26T04:31:50.831Z,3.77
2018-01-26T04:32:50.744Z,3.63
2018-01-26T04:33:50.658Z,3.77
2018-01-26T04:34:50.573Z,3.73
2018-01-26T04:35:50.489Z,3.76
2018-01-26T04:36:50.402Z,3.77
2018-01-26T04:37:50.318Z,3.77
2018-01-26T04:38:50.237Z,3.63
2018-01-26T04:39:50.152Z,3.66
2018-01-26T04:40:50.065Z,3.68
2018-01-26T04:41:49.976Z,3.65
2018-01-26T04:42:49.896Z,3.58
2018-01-26T04:43:49.808Z,3.62
2018-01-26T04:44:49.735Z,3.60
2018-01-26T04:45:49.670Z,3.58
2018-01-26T04:46:49.555Z,3.62
2018-01-26T04:47:49.477Z,3.63
2018-01-26T04:48:49.384Z,3.63
2018-01-26T04:49:49.299Z,3.59
2018-01-26T04:50:49.214Z,3.55
2018-01-26T04:51:49.131Z,3.68
2018-01-26T04:52:49.044Z,3.58
2018-01-26T04:53:48.958Z,3.59
2018-01-26T04:54:48.876Z,3.55
2018-01-26T04:55:48.790Z,3.50
2018-01-26T04:56:48.705Z,3.45
2018-01-26T04:57:48.619Z,3.51
2018-01-26T04:58:48.534Z,3.45
2018-01-26T04:59:48.450Z,3.45
2018-01-26T05:00:48.363Z,3.41
2018-01-26T05:01:48.280Z,3.44
2018-01-26T05:02:48.193Z,3.42
2018-01-26T05:03:48.108Z,3.50
2018-01-26T05:04:48.028Z,3.53
2018-01-26T05:05:47.939Z,3.56
2018-01-26T05:06:47.853Z,3.42
2018-01-26T05:07:47.768Z,3.41
2018-01-26T05:08:47.683Z,3.45
2018-01-26T05:09:47.599Z,3.40
2018-01-26T05:10:47.513Z,3.44
2018-01-26T05:11:47.427Z,3.47
2018-01-26T05:12:47.346Z,3.44
2018-01-26T05:13:47.256Z,3.42
2018-01-26T05:14:47.174Z,3.50
2018-01-26T05:15:47.093Z,3.50
2018-01-26T05:16:47.002Z,3.47
2018-01-26T05:17:46.916Z,3.47
2018-01-26T05:18:46.830Z,3.51
2018-01-26T05:19:46.747Z,3.50
2018-01-26T05:20:46.662Z,3.56
2018-01-26T05:21:46.579Z,3.55
2018-01-26T05:22:46.490Z,3.65
2018-01-26T05:23:46.450Z,3.60
2018-01-26T05:24:46.320Z,3.58
2018-01-26T05:25:46.235Z,3.55
2018-01-26T05:26:46.150Z,3.53
2018-01-26T05:27:46.070Z,3.56
2018-01-26T05:28:45.980Z,3.65
2018-01-26T05:29:45.897Z,3.51
2018-01-26T05:30:45.810Z,3.51
2018-01-26T05:31:45.727Z,3.48
2018-01-26T05:32:45.641Z,3.53
2018-01-26T05:33:45.557Z,3.62
2018-01-26T05:34:45.472Z,3.60
2018-01-26T05:35:45.468Z,3.62
2018-01-26T05:36:45.307Z,3.53
2018-01-26T05:37:45.217Z,3.51
2018-01-26T05:38:45.130Z,3.56
2018-01-26T05:39:45.046Z,3.50
2018-01-26T05:40:44.961Z,3.56
2018-01-26T05:41:44.873Z,3.65
2018-01-26T05:42:44.791Z,3.58
2018-01-26T05:43:44.707Z,3.56
2018-01-26T05:44:44.619Z,3.65
2018-01-26T05:45:44.534Z,3.65
2018-01-26T05:46:44.471Z,3.62
2018-01-26T05:47:44.366Z,3.66
2018-01-26T05:48:44.279Z,3.80
2018-01-26T05:49:44.194Z,3.78
2018-01-26T05:50:44.163Z,3.81
2018-01-26T05:51:44.074Z,3.74
2018-01-26T05:52:43.971Z,3.70
2018-01-26T05:53:43.853Z,3.73
2018-01-26T05:54:43.817Z,3.77
2018-01-26T05:55:43.738Z,3.65
2018-01-26T05:56:43.624Z,3.65
2018-01-26T05:57:43.554Z,3.66
2018-01-26T05:58:43.479Z,3.68
2018-01-26T05:59:43.400Z,3.65
2018-01-26T06:00:44.288Z,3.60
2018-01-26T06:01:43.231Z,3.66
2018-01-26T06:02:43.102Z,3.69
2018-01-26T06:03:43.005Z,3.65
2018-01-26T06:04:42.933Z,3.69
2018-01-26T06:05:42.833Z,3.68
2018-01-26T06:06:42.749Z,3.58
2018-01-26T06:07:42.670Z,3.68
2018-01-26T06:08:42.579Z,3.63
2018-01-26T06:09:42.494Z,3.77
2018-01-26T06:10:42.425Z,3.68
2018-01-26T06:11:42.324Z,3.76
2018-01-26T06:12:42.239Z,3.80
2018-01-26T06:13:42.154Z,3.84
2018-01-26T06:14:42.071Z,3.77
2018-01-26T06:15:41.986Z,3.88
2018-01-26T06:16:41.929Z,3.87
2018-01-26T06:17:41.817Z,3.92
2018-01-26T06:18:41.731Z,3.76
2018-01-26T06:19:41.647Z,3.78
2018-01-26T06:20:41.562Z,3.80
2018-01-26T06:21:41.513Z,3.77
2018-01-26T06:22:41.390Z,3.76
2018-01-26T06:23:41.309Z,3.73
2018-01-26T06:24:41.221Z,3.77
2018-01-26T06:25:41.138Z,3.65
2018-01-26T06:26:41.052Z,3.76
2018-01-26T06:27:40.970Z,3.70
2018-01-26T06:28:40.880Z,3.62
2018-01-26T06:29:40.800Z,3.65
2018-01-26T06:30:40.712Z,3.65
2018-01-26T06:31:40.630Z,3.66
2018-01-26T06:32:40.544Z,3.68
2018-01-26T06:33:40.458Z,3.59
2018-01-26T06:34:40.373Z,3.65
2018-01-26T06:35:40.291Z,3.69
2018-01-26T06:36:40.242Z,3.60
2018-01-26T06:37:40.119Z,3.60
2018-01-26T06:38:40.033Z,3.53
2018-01-26T06:39:39.950Z,3.62
2018-01-26T06:40:39.872Z,3.56
2018-01-26T06:41:39.799Z,3.48
2018-01-26T06:42:39.695Z,3.50
2018-01-26T06:43:39.612Z,3.47
2018-01-26T06:44:39.523Z,3.50
2018-01-26T06:45:39.438Z,3.48
2018-01-26T06:46:39.354Z,3.55
2018-01-26T06:47:39.269Z,3.56
2018-01-26T06:48:39.187Z,3.56
2018-01-26T06:49:39.120Z,3.60
2018-01-26T06:50:39.034Z,3.62
2018-01-26T06:51:38.927Z,3.53
2018-01-26T06:52:38.843Z,3.51
2018-01-26T06:53:38.757Z,3.50
2018-01-26T06:54:38.707Z,3.51
2018-01-26T06:55:38.589Z,3.47
2018-01-26T06:56:38.502Z,3.47
2018-01-26T06:57:38.418Z,3.50
2018-01-26T06:58:38.340Z,3.47
2018-01-26T06:59:38.248Z,3.53
2018-01-26T07:00:38.178Z,3.45
2018-01-26T07:01:38.082Z,3.56
2018-01-26T07:02:37.993Z,3.53
2018-01-26T07:03:37.908Z,3.55
2018-01-26T07:04:37.822Z,3.56
2018-01-26T07:05:37.737Z,3.62
2018-01-26T07:06:37.653Z,3.66
2018-01-26T07:07:37.568Z,3.60
2018-01-26T07:08:37.481Z,3.62
2018-01-26T07:09:37.401Z,3.66
2018-01-26T07:10:37.313Z,3.74
2018-01-26T07:11:37.228Z,3.69
2018-01-26T07:12:37.144Z,3.77
2018-01-26T07:13:37.059Z,3.77
2018-01-26T07:14:36.973Z,3.76
2018-01-26T07:15:36.895Z,3.81
2018-01-26T07:16:36.804Z,3.81
2018-01-26T07:17:36.717Z,3.74
2018-01-26T07:18:36.636Z,3.73
2018-01-26T07:19:36.551Z,3.74
2018-01-26T07:20:36.464Z,3.80
2018-01-26T07:21:36.378Z,3.80
2018-01-26T07:22:36.303Z,3.66
2018-01-26T07:23:36.209Z,3.69
2018-01-26T07:24:36.123Z,3.66
2018-01-26T07:25:36.038Z,3.59
2018-01-26T07:26:35.953Z,3.65
2018-01-26T07:27:35.873Z,3.55
2018-01-26T07:28:35.787Z,3.60
2018-01-26T07:29:35.698Z,3.53
2018-01-26T07:30:35.621Z,3.58
2018-01-26T07:31:35.533Z,3.55
2018-01-26T07:32:35.447Z,3.56
2018-01-26T07:33:35.359Z,3.47
2018-01-26T07:34:35.274Z,3.50
2018-01-26T07:35:35.192Z,3.42
2018-01-26T07:36:35.107Z,3.55
2018-01-26T07:37:35.019Z,3.47
2018-01-26T07:38:34.945Z,3.45
2018-01-26T07:39:34.849Z,3.42
2018-01-26T07:40:34.765Z,3.50
2018-01-26T07:41:34.691Z,3.47
2018-01-26T07:42:34.596Z,3.51
2018-01-26T07:43:34.540Z,3.45
2018-01-26T07:44:34.425Z,3.48
2018-01-26T07:45:34.338Z,3.53
2018-01-26T07:46:34.255Z,3.50
2018-01-26T07:47:34.169Z,3.53
2018-01-26T07:48:34.086Z,3.51
2018-01-26T07:49:34.013Z,3.62
2018-01-26T07:50:33.962Z,3.59
2018-01-26T07:51:33.828Z,3.58
2018-01-26T07:52:33.743Z,3.58
2018-01-26T07:53:33.657Z,3.60
2018-01-26T07:54:33.577Z,3.55
2018-01-26T07:55:33.489Z,3.63
2018-01-26T07:56:33.419Z,3.58
2018-01-26T07:57:33.326Z,3.62
2018-01-26T07:58:33.237Z,3.60
2018-01-26T07:59:33.149Z,3.58
2018-01-26T08:00:33.068Z,3.65
2018-01-26T08:01:32.980Z,3.63
2018-01-26T08:02:32.893Z,3.56
2018-01-26T08:03:32.813Z,3.59
2018-01-26T08:04:32.762Z,3.60
2018-01-26T08:05:32.637Z,3.56
2018-01-26T08:06:32.550Z,3.60
2018-01-26T08:07:32.469Z,3.50
2018-01-26T08:08:32.399Z,3.60
2018-01-26T08:09:32.297Z,3.50
2018-01-26T08:10:32.216Z,3.51
2018-01-26T08:11:32.127Z,3.60
2018-01-26T08:12:32.044Z,3.47
2018-01-26T08:13:31.958Z,3.50
2018-01-26T08:14:31.871Z,3.53
2018-01-26T08:15:31.785Z,3.58
2018-01-26T08:16:31.706Z,3.62
2018-01-26T08:17:31.637Z,3.63
2018-01-26T08:18:31.530Z,3.58
2018-01-26T08:19:31.448Z,3.68
2018-01-26T08:20:31.360Z,3.69
2018-01-26T08:21:31.394Z,3.62
2018-01-26T08:22:31.195Z,3.66
2018-01-26T08:23:31.113Z,3.77
2018-01-26T08:24:31.022Z,3.78
2018-01-26T08:25:30.948Z,3.78
2018-01-26T08:26:31.778Z,3.76
2018-01-26T08:27:30.766Z,3.80
2018-01-26T08:28:30.681Z,3.78
2018-01-26T08:29:30.643Z,3.73
2018-01-26T08:30:30.582Z,3.77
2018-01-26T08:31:30.461Z,3.83
2018-01-26T08:32:30.386Z,3.81
2018-01-26T08:33:30.293Z,3.81
2018-01-26T08:34:30.249Z,3.84
2018-01-26T08:35:30.110Z,3.76
2018-01-26T08:36:30.057Z,3.86
2018-01-26T08:37:29.974Z,3.88
2018-01-26T08:38:29.890Z,3.88
2018-01-26T08:39:29.796Z,3.86
2018-01-26T08:40:29.695Z,3.96
2018-01-26T08:41:29.641Z,3.92
2018-01-26T08:42:29.493Z,3.95
2018-01-26T08:43:29.409Z,3.95
2018-01-26T08:44:29.324Z,3.98
2018-01-26T08:45:29.241Z,3.96
2018-01-26T08:46:29.168Z,3.96
2018-01-26T08:47:29.071Z,3.96
2018-01-26T08:48:28.991Z,3.98
2018-01-26T08:49:28.899Z,3.96
2018-01-26T08:50:28.813Z,3.95
2018-01-26T08:51:28.735Z,3.99
2018-01-26T08:52:28.645Z,4.10
2018-01-26T08:53:28.560Z,4.04
2018-01-26T08:54:28.478Z,4.10
2018-01-26T08:55:28.392Z,4.05
2018-01-26T08:56:28.306Z,3.95
2018-01-26T08:57:28.221Z,4.12
2018-01-26T08:58:28.138Z,4.01
2018-01-26T08:59:28.059Z,3.96
2018-01-26T09:00:27.968Z,3.91
2018-01-26T09:01:27.882Z,3.94
2018-01-26T09:02:27.802Z,4.04
2018-01-26T09:03:27.721Z,3.96
2018-01-26T09:04:27.642Z,3.94
2018-01-26T09:05:27.544Z,3.99
2018-01-26T09:06:27.459Z,4.10
2018-01-26T09:07:27.379Z,3.92
2018-01-26T09:08:27.291Z,3.96
2018-01-26T09:09:27.206Z,4.01
2018-01-26T09:10:27.122Z,3.94
2018-01-26T09:11:27.052Z,3.98
2018-01-26T09:12:26.959Z,3.98
2018-01-26T09:13:26.873Z,3.94
2018-01-26T09:14:26.786Z,4.10
2018-01-26T09:15:26.700Z,4.12
2018-01-26T09:16:26.653Z,4.12
2018-01-26T09:17:26.532Z,4.08
2018-01-26T09:18:26.472Z,4.13
2018-01-26T09:19:26.361Z,3.95
2018-01-26T09:20:26.277Z,3.95
2018-01-26T09:21:26.194Z,4.12
2018-01-26T09:22:26.135Z,4.04
2018-01-26T09:23:26.067Z,4.13
2018-01-26T09:24:25.950Z,4.19
2018-01-26T09:25:25.857Z,4.14
2018-01-26T09:26:25.770Z,4.17
2018-01-26T09:27:25.691Z,4.31
2018-01-26T09:28:25.619Z,4.20
2018-01-26T09:29:25.521Z,4.20
2018-01-26T09:30:25.436Z,4.30
2018-01-26T09:31:25.350Z,4.28
2018-01-26T09:32:25.266Z,4.40
2018-01-26T09:33:25.187Z,4.40
2018-01-26T09:34:25.096Z,4.38
2018-01-26T09:35:25.013Z,4.41
2018-01-26T09:36:24.928Z,4.37
2018-01-26T09:37:24.844Z,4.34
2018-01-26T09:38:24.759Z,4.40
2018-01-26T09:39:24.677Z,4.42
2018-01-26T09:40:24.592Z,4.49
2018-01-26T09:41:24.510Z,4.44
2018-01-26T09:42:24.422Z,4.41
2018-01-26T09:43:24.337Z,4.50
2018-01-26T09:44:24.262Z,4.37
2018-01-26T09:45:24.171Z,4.44
2018-01-26T09:46:24.088Z,4.49
2018-01-26T09:47:24.007Z,4.52
2018-01-26T09:48:23.924Z,4.48
2018-01-26T09:49:23.841Z,4.53
2018-01-26T09:50:23.757Z,4.49
2018-01-26T09:51:23.704Z,4.59
2018-01-26T09:52:23.582Z,4.56
2018-01-26T09:53:23.502Z,4.59
2018-01-26T09:54:23.416Z,4.63
2018-01-26T09:55:23.330Z,4.50
2018-01-26T09:56:23.254Z,4.60
2018-01-26T09:57:23.168Z,4.49
2018-01-26T09:58:23.078Z,4.58
2018-01-26T09:59:22.996Z,4.55
2018-01-26T10:00:22.911Z,4.62
2018-01-26T10:01:22.826Z,4.66
2018-01-26T10:02:22.742Z,4.62
2018-01-26T10:03:22.661Z,4.58
2018-01-26T10:04:22.573Z,4.67
2018-01-26T10:05:22.496Z,4.66
2018-01-26T10:06:22.408Z,4.63
2018-01-26T10:07:22.322Z,4.62
2018-01-26T10:08:22.239Z,4.59
2018-01-26T10:09:22.160Z,4.73
2018-01-26T10:10:22.070Z,4.62
2018-01-26T10:11:21.988Z,4.77
2018-01-26T10:12:21.944Z,4.62
2018-01-26T10:13:21.819Z,4.75
2018-01-26T10:14:21.736Z,4.73
2018-01-26T10:15:21.659Z,4.84
2018-01-26T10:16:21.572Z,4.74
2018-01-26T10:17:21.485Z,4.77
2018-01-26T10:18:21.400Z,4.84
2018-01-26T10:19:21.318Z,4.84
2018-01-26T10:20:21.244Z,4.82
2018-01-26T10:21:21.149Z,4.87
2018-01-26T10:22:21.094Z,4.89
2018-01-26T10:23:20.980Z,4.90
2018-01-26T10:24:20.896Z,4.94
2018-01-26T10:25:20.814Z,4.96
2018-01-26T10:26:20.729Z,4.94
2018-01-26T10:27:20.655Z,4.94
2018-01-26T10:28:20.567Z,4.99
2018-01-26T10:29:20.478Z,4.99
2018-01-26T10:30:20.409Z,5.08
2018-01-26T10:31:20.312Z,5.00
2018-01-26T10:32:20.230Z,5.14
2018-01-26T10:33:20.147Z,5.17
2018-01-26T10:34:20.064Z,5.12
2018-01-26T10:35:19.978Z,5.20
2018-01-26T10:36:19.902Z,5.23
2018-01-26T10:37:19.813Z,5.21
2018-01-26T10:38:19.727Z,5.28
2018-01-26T10:39:19.642Z,5.26
2018-01-26T10:40:19.558Z,5.26
2018-01-26T10:41:19.477Z,5.33
2018-01-26T10:42:19.390Z,5.26
2018-01-26T10:43:19.307Z,5.38
2018-01-26T10:44:19.249Z,5.36
2018-01-26T10:45:19.142Z,5.32
2018-01-26T10:46:19.060Z,5.46
2018-01-26T10:47:18.974Z,5.35
2018-01-26T10:48:18.889Z,5.36
2018-01-26T10:49:18.807Z,5.38
2018-01-26T10:50:18.724Z,5.35
2018-01-26T10:51:18.643Z,5.44
2018-01-26T10:52:18.557Z,5.41
2018-01-26T10:53:18.473Z,5.48
2018-01-26T10:54:18.389Z,5.51
2018-01-26T10:55:18.315Z,5.54
2018-01-26T10:56:18.223Z,5.65
2018-01-26T10:57:18.145Z,5.65
2018-01-26T10:58:18.078Z,5.80
2018-01-26T10:59:17.975Z,5.86
2018-01-26T11:00:17.892Z,5.94
2018-01-26T11:01:17.810Z,5.97
2018-01-26T11:02:17.728Z,6.01
2018-01-26T11:03:17.646Z,6.08
2018-01-26T11:04:17.566Z,6.04
2018-01-26T11:05:17.480Z,6.07
2018-01-26T11:06:17.398Z,6.12
2018-01-26T11:07:17.320Z,6.14
2018-01-26T11:08:17.248Z,6.12
2018-01-26T11:09:17.150Z,6.19
2018-01-26T11:10:17.068Z,6.17
2018-01-26T11:11:16.985Z,6.22
2018-01-26T11:12:16.904Z,6.35
2018-01-26T11:13:16.824Z,6.35
2018-01-26T11:14:16.737Z,6.39
2018-01-26T11:15:16.656Z,6.44
2018-01-26T11:16:16.574Z,6.54
2018-01-26T11:17:16.488Z,6.56
2018-01-26T11:18:16.407Z,6.41
2018-01-26T11:19:16.331Z,6.45
2018-01-26T11:20:16.245Z,6.66
2018-01-26T11:21:16.160Z,6.67
2018-01-26T11:22:16.082Z,6.63
2018-01-26T11:23:15.998Z,6.66
2018-01-26T11:24:15.914Z,6.75
2018-01-26T11:25:15.831Z,6.87
2018-01-26T11:26:15.749Z,6.97
2018-01-26T11:27:15.668Z,7.06
2018-01-26T11:28:15.632Z,7.15
2018-01-26T11:29:15.506Z,7.24
2018-01-26T11:30:15.425Z,7.33
2018-01-26T11:31:15.342Z,7.32
2018-01-26T11:32:15.267Z,7.51
2018-01-26T11:33:15.178Z,7.70
2018-01-26T11:34:15.100Z,7.88
2018-01-26T11:35:15.016Z,8.05
2018-01-26T11:36:14.936Z,8.27
2018-01-26T11:37:14.855Z,8.31
2018-01-26T11:38:14.774Z,8.34
2018-01-26T11:39:14.691Z,8.45
2018-01-26T11:40:14.626Z,8.45
2018-01-26T11:41:14.532Z,8.58
2018-01-26T11:42:14.453Z,8.61
2018-01-26T11:43:14.371Z,8.78
2018-01-26T11:44:14.288Z,8.89
2018-01-26T11:45:14.218Z,8.88
2018-01-26T11:46:14.130Z,9.10
2018-01-26T11:47:14.051Z,9.08
2018-01-26T11:48:13.969Z,9.10
2018-01-26T11:49:13.889Z,9.19
2018-01-26T11:50:13.809Z,9.46
2018-01-26T11:51:13.733Z,9.65
2018-01-26T11:52:13.673Z,9.99
2018-01-26T11:53:13.568Z,10.31
2018-01-26T11:54:13.491Z,10.53
2018-01-26T11:55:13.414Z,10.59
2018-01-26T11:56:13.331Z,10.67
2018-01-26T11:57:13.251Z,11.05
2018-01-26T11:58:13.175Z,11.00
2018-01-26T11:59:13.107Z,11.35
2018-01-26T12:00:13.017Z,11.59
2018-01-26T12:01:12.938Z,11.87
2018-01-26T12:02:12.868Z,12.15
2018-01-26T12:03:12.784Z,12.55
2018-01-26T12:04:12.705Z,12.47
2018-01-26T12:05:12.633Z,12.87
2018-01-26T12:06:12.554Z,13.39
2018-01-26T12:07:12.475Z,13.77
2018-01-26T12:08:12.399Z,13.95
2018-01-26T12:09:12.324Z,14.20
2018-01-26T12:10:12.247Z,14.14
2018-01-26T12:11:12.174Z,14.53
2018-01-26T12:12:12.095Z,14.86
2018-01-26T12:13:12.022Z,14.91
2018-01-26T12:14:11.946Z,14.94
2018-01-26T12:15:11.868Z,14.73
2018-01-26T12:16:11.795Z,14.37
2018-01-26T12:17:11.722Z,14.26
2018-01-26T12:18:11.645Z,14.30
2018-01-26T12:19:11.575Z,14.53
2018-01-26T12:20:11.501Z,14.66
2018-01-26T12:21:11.426Z,14.63
2018-01-26T12:22:11.352Z,14.33
2018-01-26T12:23:11.279Z,14.22
2018-01-26T12:24:11.295Z,14.29
2018-01-26T12:25:11.212Z,14.37
2018-01-26T12:26:11.143Z,14.33
2018-01-26T12:27:11.099Z,14.23
2018-01-26T12:28:11.028Z,13.92
2018-01-26T12:29:10.939Z,13.74
2018-01-26T12:30:10.858Z,13.68
2018-01-26T12:31:10.842Z,13.57
2018-01-26T12:32:10.716Z,13.56
2018-01-26T12:33:10.631Z,13.65
2018-01-26T12:34:10.570Z,13.70
2018-01-26T12:35:10.489Z,13.89
2018-01-26T12:36:10.340Z,13.92
2018-01-26T12:37:10.270Z,13.97
2018-01-26T12:38:10.196Z,13.99
2018-01-26T12:39:10.106Z,14.08
2018-01-26T12:40:10.049Z,14.11
2018-01-26T12:41:09.962Z,14.20
2018-01-26T12:42:09.904Z,14.04
2018-01-26T12:43:10.768Z,14.07
2018-01-26T12:44:09.757Z,13.93
2018-01-26T12:45:09.684Z,13.79
2018-01-26T12:46:09.613Z,13.86
2018-01-26T12:47:09.539Z,13.72
2018-01-26T12:48:09.463Z,13.79
2018-01-26T12:49:09.391Z,13.81
2018-01-26T12:50:09.318Z,13.67
2018-01-26T12:51:09.271Z,13.70
2018-01-26T12:52:09.171Z,13.47
2018-01-26T12:53:09.097Z,13.31
2018-01-26T12:54:09.026Z,13.30
2018-01-26T12:55:08.951Z,13.19
2018-01-26T12:56:08.879Z,13.18
2018-01-26T12:57:08.809Z,13.16
2018-01-26T12:58:08.715Z,13.12
2018-01-26T12:59:08.655Z,13.08
2018-01-26T13:00:08.585Z,13.08
2018-01-26T13:01:08.510Z,13.18
2018-01-26T13:02:08.433Z,13.13
2018-01-26T13:03:08.362Z,13.15
2018-01-26T13:04:08.270Z,13.31
2018-01-26T13:05:08.214Z,13.33
2018-01-26T13:06:08.139Z,13.46
2018-01-26T13:07:08.056Z,13.46
2018-01-26T13:08:07.989Z,13.33
2018-01-26T13:09:07.916Z,13.16
2018-01-26T13:10:07.841Z,13.00
2018-01-26T13:11:07.767Z,12.82
2018-01-26T13:12:07.691Z,12.62
2018-01-26T13:13:07.614Z,12.76
2018-01-26T13:14:07.549Z,12.82